Emine Anne — TCBX9 — position and weather

sailwx.info

Track history (hours):
 
Tides and Currents Weather Stations Pressure Air Temp Water Temp Dewpoint Dewpoint Depression Visibility Wind Speed Wind Dir Waves Ship Positions

Emine Anne

Last reported at 2015-Apr-21 00:16 UTC. Time now 2015-Apr-21 09:47 UTC.
Position N 40°25' E 029°05'.

Length 69 m; draft 2.4 m.

Type: Cargo ship. MMSI: 271002305.

Date/timePositionNaut miles runAvg speedWind from/ knotsBaromVisibWave heightAir tempDewpointWater temp
2015-Apr-21 00:16N 40°25' E 029°05'0 0.0
2015-Apr-20 22:14N 40°25' E 029°05'1 1.6
2015-Apr-20 21:32N 40°25' E 029°04'12 9.5
2015-Apr-20 20:19N 40°28' E 028°49'6 8.0
2015-Apr-20 19:31N 40°34' E 028°45'9 9.3
2015-Apr-20 18:33N 40°40' E 028°54'10 9.5
2015-Apr-20 17:31N 40°46' E 029°04'8 8.3
2015-Apr-20 16:33N 40°52' E 029°11'1 0.7
2015-Apr-20 15:27N 40°53' E 029°12'0 0.0
2015-Apr-20 14:30N 40°53' E 029°12'0 0.0
2015-Apr-20 13:28N 40°53' E 029°12'0 0.0
2015-Apr-20 12:30N 40°53' E 029°12'0 0.0
2015-Apr-20 11:30N 40°53' E 029°12'0 0.0
2015-Apr-20 10:28N 40°53' E 029°12'0 0.0
2015-Apr-20 09:24N 40°53' E 029°12'0 0.0
2015-Apr-20 08:08N 40°53' E 029°12'0 0.1
2015-Apr-20 07:22N 40°53' E 029°12'0 0.0
2015-Apr-20 06:30N 40°53' E 029°11'0 0.0
2015-Apr-20 05:25N 40°53' E 029°11'0 0.0
2015-Apr-20 04:31N 40°53' E 029°12'0 0.0
2015-Apr-20 03:25N 40°53' E 029°11'0 0.0
2015-Apr-20 02:25N 40°53' E 029°11'0 0.0
2015-Apr-20 01:26N 40°53' E 029°12'0 0.0
2015-Apr-20 00:28N 40°53' E 029°12'0 0.0
2015-Apr-19 23:33N 40°53' E 029°12'0 0.0
2015-Apr-19 22:28N 40°53' E 029°12'0 0.1
2015-Apr-19 21:33N 40°53' E 029°11'0 0.0
2015-Apr-19 20:23N 40°53' E 029°11'0 0.0
2015-Apr-19 19:17N 40°53' E 029°11'0 0.0
2015-Apr-19 18:28N 40°53' E 029°11'0 0.0
2015-Apr-19 17:31N 40°53' E 029°11'0 0.0
2015-Apr-19 16:26N 40°53' E 029°11'0 0.0
2015-Apr-19 15:29N 40°53' E 029°12'0 0.0
2015-Apr-19 14:29N 40°53' E 029°12'0 0.0
2015-Apr-19 13:25N 40°53' E 029°12'0 0.0
2015-Apr-19 12:28N 40°53' E 029°12'0 0.0
2015-Apr-19 11:22N 40°53' E 029°12'0 0.0
2015-Apr-19 10:29N 40°53' E 029°11'0 0.0
2015-Apr-19 09:11N 40°53' E 029°11'0 0.0
2015-Apr-19 08:28N 40°53' E 029°12'0 0.0
2015-Apr-19 07:24N 40°53' E 029°12'0 0.0
2015-Apr-19 06:29N 40°53' E 029°12'0 0.0
2015-Apr-19 05:12N 40°53' E 029°12'0 0.0
2015-Apr-19 04:29N 40°53' E 029°12'0 0.0
2015-Apr-19 03:31N 40°53' E 029°12'0 0.0
2015-Apr-19 02:31N 40°53' E 029°12'0 0.0
2015-Apr-19 01:32N 40°53' E 029°12'0 0.0
2015-Apr-19 00:27N 40°53' E 029°12'0 0.0
2015-Apr-18 23:33N 40°53' E 029°12'0 0.0
2015-Apr-18 22:21N 40°53' E 029°12'0 0.0
2015-Apr-18 21:32N 40°53' E 029°12'0 0.0
2015-Apr-18 20:29N 40°53' E 029°12'0 0.0
2015-Apr-18 19:32N 40°53' E 029°12'0 0.0
2015-Apr-18 18:28N 40°53' E 029°12'0 0.0
2015-Apr-18 17:17N 40°53' E 029°12'0 0.0
2015-Apr-18 16:20N 40°53' E 029°12'0 0.0
2015-Apr-18 15:22N 40°53' E 029°12'0 0.0
2015-Apr-18 14:28N 40°53' E 029°12'0 0.0
2015-Apr-18 13:32N 40°53' E 029°12'0 0.0
2015-Apr-17 06:18N 40°53' E 029°12'0 0.0
2015-Apr-17 05:29N 40°53' E 029°12'0 0.0
2015-Apr-17 04:17N 40°53' E 029°12'0 0.0
2015-Apr-17 03:33N 40°53' E 029°12'0 0.0
2015-Apr-17 02:25N 40°53' E 029°12'0 0.0
2015-Apr-17 01:25N 40°53' E 029°12'0 0.0
2015-Apr-17 00:28N 40°53' E 029°12'0 0.0
2015-Apr-16 23:31N 40°53' E 029°12'0 0.1
2015-Apr-16 22:27N 40°53' E 029°12'0 0.0
2015-Apr-16 21:24N 40°53' E 029°12'0 0.0
2015-Apr-16 20:28N 40°53' E 029°12'0 0.0
2015-Apr-16 19:25N 40°53' E 029°12'0 0.0
2015-Apr-16 17:14N 40°53' E 029°11'0 0.0
2015-Apr-16 16:29N 40°53' E 029°11'0 0.0
2015-Apr-16 15:33N 40°53' E 029°11'0 0.0
2015-Apr-16 14:14N 40°53' E 029°12'0 0.0
2015-Apr-16 13:16N 40°53' E 029°12'0 0.0
2015-Apr-16 12:28N 40°53' E 029°12'0 0.0
2015-Apr-16 11:26N 40°53' E 029°12'  
2015-Apr-12 18:33N 41°20' E 029°22'8 8.2
2015-Apr-12 17:33N 41°20' E 029°33'  
Track history (hours):
 
Tides and Currents Weather Stations Pressure Air Temp Water Temp Dewpoint Dewpoint Depression Visibility Wind Speed Wind Dir Waves Ship Positions

Emine Anne

Last reported at 2015-Apr-21 00:16 UTC. Time now 2015-Apr-21 09:47 UTC.
Position N 40°25' E 029°05'.

Length 69 m; draft 2.4 m.

Type: Cargo ship. MMSI: 271002305.

Date/timePositionNaut miles runAvg speedWind from/ knotsBaromVisibWave heightAir tempDewpointWater temp
2015-Apr-21 00:16N 40°25' E 029°05'0 0.0
2015-Apr-20 22:14N 40°25' E 029°05'1 1.6
2015-Apr-20 21:32N 40°25' E 029°04'12 9.5
2015-Apr-20 20:19N 40°28' E 028°49'6 8.0
2015-Apr-20 19:31N 40°34' E 028°45'9 9.3
2015-Apr-20 18:33N 40°40' E 028°54'10 9.5
2015-Apr-20 17:31N 40°46' E 029°04'8 8.3
2015-Apr-20 16:33N 40°52' E 029°11'1 0.7
2015-Apr-20 15:27N 40°53' E 029°12'0 0.0
2015-Apr-20 14:30N 40°53' E 029°12'0 0.0
2015-Apr-20 13:28N 40°53' E 029°12'0 0.0
2015-Apr-20 12:30N 40°53' E 029°12'0 0.0
2015-Apr-20 11:30N 40°53' E 029°12'0 0.0
2015-Apr-20 10:28N 40°53' E 029°12'0 0.0
2015-Apr-20 09:24N 40°53' E 029°12'0 0.0
2015-Apr-20 08:08N 40°53' E 029°12'0 0.1
2015-Apr-20 07:22N 40°53' E 029°12'0 0.0
2015-Apr-20 06:30N 40°53' E 029°11'0 0.0
2015-Apr-20 05:25N 40°53' E 029°11'0 0.0
2015-Apr-20 04:31N 40°53' E 029°12'0 0.0
2015-Apr-20 03:25N 40°53' E 029°11'0 0.0
2015-Apr-20 02:25N 40°53' E 029°11'0 0.0
2015-Apr-20 01:26N 40°53' E 029°12'0 0.0
2015-Apr-20 00:28N 40°53' E 029°12'0 0.0
2015-Apr-19 23:33N 40°53' E 029°12'0 0.0
2015-Apr-19 22:28N 40°53' E 029°12'0 0.1
2015-Apr-19 21:33N 40°53' E 029°11'0 0.0
2015-Apr-19 20:23N 40°53' E 029°11'0 0.0
2015-Apr-19 19:17N 40°53' E 029°11'0 0.0
2015-Apr-19 18:28N 40°53' E 029°11'0 0.0
2015-Apr-19 17:31N 40°53' E 029°11'0 0.0
2015-Apr-19 16:26N 40°53' E 029°11'0 0.0
2015-Apr-19 15:29N 40°53' E 029°12'0 0.0
2015-Apr-19 14:29N 40°53' E 029°12'0 0.0
2015-Apr-19 13:25N 40°53' E 029°12'0 0.0
2015-Apr-19 12:28N 40°53' E 029°12'0 0.0
2015-Apr-19 11:22N 40°53' E 029°12'0 0.0
2015-Apr-19 10:29N 40°53' E 029°11'0 0.0
2015-Apr-19 09:11N 40°53' E 029°11'0 0.0
2015-Apr-19 08:28N 40°53' E 029°12'0 0.0
2015-Apr-19 07:24N 40°53' E 029°12'0 0.0
2015-Apr-19 06:29N 40°53' E 029°12'0 0.0
2015-Apr-19 05:12N 40°53' E 029°12'0 0.0
2015-Apr-19 04:29N 40°53' E 029°12'0 0.0
2015-Apr-19 03:31N 40°53' E 029°12'0 0.0
2015-Apr-19 02:31N 40°53' E 029°12'0 0.0
2015-Apr-19 01:32N 40°53' E 029°12'0 0.0
2015-Apr-19 00:27N 40°53' E 029°12'0 0.0
2015-Apr-18 23:33N 40°53' E 029°12'0 0.0
2015-Apr-18 22:21N 40°53' E 029°12'0 0.0
2015-Apr-18 21:32N 40°53' E 029°12'0 0.0
2015-Apr-18 20:29N 40°53' E 029°12'0 0.0
2015-Apr-18 19:32N 40°53' E 029°12'0 0.0
2015-Apr-18 18:28N 40°53' E 029°12'0 0.0
2015-Apr-18 17:17N 40°53' E 029°12'0 0.0
2015-Apr-18 16:20N 40°53' E 029°12'0 0.0
2015-Apr-18 15:22N 40°53' E 029°12'0 0.0
2015-Apr-18 14:28N 40°53' E 029°12'0 0.0
2015-Apr-18 13:32N 40°53' E 029°12'0 0.0
2015-Apr-17 06:18N 40°53' E 029°12'0 0.0
2015-Apr-17 05:29N 40°53' E 029°12'0 0.0
2015-Apr-17 04:17N 40°53' E 029°12'0 0.0
2015-Apr-17 03:33N 40°53' E 029°12'0 0.0
2015-Apr-17 02:25N 40°53' E 029°12'0 0.0
2015-Apr-17 01:25N 40°53' E 029°12'0 0.0
2015-Apr-17 00:28N 40°53' E 029°12'0 0.0
2015-Apr-16 23:31N 40°53' E 029°12'0 0.1
2015-Apr-16 22:27N 40°53' E 029°12'0 0.0
2015-Apr-16 21:24N 40°53' E 029°12'0 0.0
2015-Apr-16 20:28N 40°53' E 029°12'0 0.0
2015-Apr-16 19:25N 40°53' E 029°12'0 0.0
2015-Apr-16 17:14N 40°53' E 029°11'0 0.0
2015-Apr-16 16:29N 40°53' E 029°11'0 0.0
2015-Apr-16 15:33N 40°53' E 029°11'0 0.0
2015-Apr-16 14:14N 40°53' E 029°12'0 0.0
2015-Apr-16 13:16N 40°53' E 029°12'0 0.0
2015-Apr-16 12:28N 40°53' E 029°12'0 0.0
2015-Apr-16 11:26N 40°53' E 029°12'  
2015-Apr-12 18:33N 41°20' E 029°22'8 8.2
2015-Apr-12 17:33N 41°20' E 029°33'  

Dump ship's entire track history